Time;durP1;ratioP1;P1;durP2;ratioP2;P2;SDS_P1;SDS_P2;PMS_P1;PMS_P2;Temp;Humidity;BMP_temperature;BMP_pressure;BME280_temperature;BME280_humidity;BME280_pressure;Samples;Min_cycle;Max_cycle;Signal;HPM_P1;HPM_P2
2022/06/11 03:54:04;;;;;;;;;7.00;6.00;;;;;18.34;67.12;101803.84;5070328;28;45484;-70
2022/06/11 03:56:30;;;;;;;;;5.00;4.00;;;;;18.52;66.63;101808.03;5053165;28;45413;-66
2022/06/11 03:58:56;;;;;;;;;4.33;4.00;;;;;18.68;66.87;101814.88;5053720;28;45619;-65
2022/06/11 04:01:23;;;;;;;;;5.00;5.00;;;;;18.69;66.17;101786.56;5053623;28;45506;-67
2022/06/11 04:04:01;;;;;;;;;5.00;4.00;;;;;19.10;65.27;101824.88;5052971;28;45407;-66
2022/06/11 04:06:42;;;;;;;;;6.00;6.00;;;;;19.27;64.98;101820.19;5053314;28;45393;-66
2022/06/11 04:09:13;;;;;;;;;4.33;4.00;;;;;19.40;64.85;101824.38;5053451;28;45605;-65
2022/06/11 04:11:39;;;;;;;;;7.67;5.33;;;;;19.55;64.22;101835.63;5053479;28;45437;-68
2022/06/11 04:14:05;;;;;;;;;7.00;5.00;;;;;19.68;63.94;101837.22;5050752;28;45443;-66
2022/06/11 04:16:36;;;;;;;;;5.00;5.00;;;;;19.74;63.76;101830.88;5037786;28;45408;-70
2022/06/11 04:19:17;;;;;;;;;8.00;6.00;;;;;19.92;63.37;101834.06;5049977;28;45495;-65
2022/06/11 04:21:43;;;;;;;;;4.67;4.67;;;;;20.01;62.96;101834.81;5054812;28;45593;-65
2022/06/11 04:24:10;;;;;;;;;5.00;5.00;;;;;20.00;62.77;101835.69;5054074;28;46415;-68
2022/06/11 04:26:40;;;;;;;;;5.33;5.33;;;;;20.09;62.99;101844.38;5054334;28;45458;-68
2022/06/11 04:29:08;;;;;;;;;6.00;4.67;;;;;20.16;62.57;101839.81;5054682;28;45398;-66
2022/06/11 04:31:35;;;;;;;;;4.33;4.33;;;;;20.08;62.60;101837.31;5054588;28;45572;-68
2022/06/11 04:34:01;;;;;;;;;6.33;4.00;;;;;20.21;62.49;101845.03;5051316;28;47004;-68
2022/06/11 04:36:30;;;;;;;;;6.00;5.00;;;;;20.29;62.11;101845.78;5052865;28;45328;-67
2022/06/11 04:38:56;;;;;;;;;5.00;5.00;;;;;20.37;61.81;101843.81;5052803;28;45439;-66
2022/06/11 04:41:22;;;;;;;;;6.00;6.00;;;;;20.50;61.41;101853.31;5053113;28;45478;-66
2022/06/11 04:43:48;;;;;;;;;6.67;5.33;;;;;20.52;61.11;101839.94;5052948;28;45492;-65
2022/06/11 04:46:15;;;;;;;;;5.00;5.00;;;;;20.64;60.61;101850.34;5053083;28;45324;-66
2022/06/11 04:48:41;;;;;;;;;8.00;7.00;;;;;20.75;60.48;101860.75;5052837;28;45470;-64
2022/06/11 04:51:08;;;;;;;;;9.00;6.67;;;;;20.81;60.50;101860.63;5053257;28;45437;-66
2022/06/11 04:53:34;;;;;;;;;6.00;6.00;;;;;20.88;60.28;101861.34;5068953;28;46199;-66
2022/06/11 04:56:00;;;;;;;;;6.67;6.00;;;;;20.85;60.19;101850.78;5073504;27;45235;-66
2022/06/11 04:58:26;;;;;;;;;7.67;6.67;;;;;20.96;59.61;101857.59;5073183;28;45341;-66
2022/06/11 05:00:52;;;;;;;;;6.00;6.00;;;;;21.02;59.83;101861.03;5074373;28;45299;-71
2022/06/11 05:03:18;;;;;;;;;4.67;4.67;;;;;20.95;59.55;101836.31;5071882;27;45563;-64
2022/06/11 05:05:43;;;;;;;;;5.00;5.00;;;;;21.09;59.58;101855.50;5025064;28;45485;-66
2022/06/11 05:08:11;;;;;;;;;6.00;5.00;;;;;21.16;59.32;101861.56;5061325;28;45563;-68
2022/06/11 05:10:37;;;;;;;;;7.00;7.00;;;;;21.14;59.34;101847.41;5060792;28;45481;-65
2022/06/11 05:13:06;;;;;;;;;6.00;6.00;;;;;21.27;58.95;101864.00;5061534;28;45346;-66
2022/06/11 05:15:33;;;;;;;;;7.00;7.00;;;;;21.31;58.99;101863.00;5048067;28;45568;-69
2022/06/11 05:17:59;;;;;;;;;8.00;7.33;;;;;21.37;58.87;101854.84;5042123;28;45653;-66
2022/06/11 05:20:25;;;;;;;;;5.33;5.00;;;;;21.35;58.63;101848.69;5042356;28;45670;-65
2022/06/11 05:22:51;;;;;;;;;5.67;5.67;;;;;21.46;58.64;101864.44;5041706;28;45365;-65
2022/06/11 05:25:19;;;;;;;;;5.00;5.00;;;;;21.51;58.43;101858.06;5041429;28;45371;-68
2022/06/11 05:27:46;;;;;;;;;8.33;7.00;;;;;21.57;58.26;101865.06;5040371;28;45638;-66
2022/06/11 05:30:23;;;;;;;;;7.00;5.33;;;;;21.62;58.09;101846.22;5039915;28;45530;-66
2022/06/11 05:32:49;;;;;;;;;7.00;7.00;;;;;21.68;58.01;101862.09;5039766;28;45464;-67
2022/06/11 05:35:19;;;;;;;;;8.67;6.67;;;;;21.74;57.72;101853.94;5037508;28;45391;-68
2022/06/11 05:37:46;;;;;;;;;6.00;6.00;;;;;21.78;57.89;101864.47;5029268;28;45614;-66
2022/06/11 05:40:15;;;;;;;;;6.33;5.00;;;;;21.82;57.74;101857.25;5039148;28;45460;-67
2022/06/11 05:42:47;;;;;;;;;7.00;7.00;;;;;21.86;57.69;101856.25;5030693;28;45365;-66
2022/06/11 05:45:19;;;;;;;;;5.67;5.00;;;;;21.92;58.00;101857.88;5039215;28;45552;-66
2022/06/11 05:47:46;;;;;;;;;5.67;5.67;;;;;21.95;57.45;101860.47;5038378;28;45588;-66
2022/06/11 05:50:16;;;;;;;;;8.00;7.67;;;;;21.88;57.64;101862.44;5038205;28;45583;-66
2022/06/11 05:52:45;;;;;;;;;7.33;7.33;;;;;21.84;57.72;101857.22;5037902;28;46284;-66
2022/06/11 05:55:14;;;;;;;;;5.33;5.00;;;;;21.85;57.64;101851.81;5037890;28;45557;-66
2022/06/11 05:57:40;;;;;;;;;11.33;10.33;;;;;21.99;57.61;101865.66;5038146;28;45485;-67
2022/06/11 06:00:08;;;;;;;;;12.00;10.00;;;;;22.09;57.15;101870.75;5038190;28;45423;-66
2022/06/11 06:02:34;;;;;;;;;13.00;10.00;;;;;22.08;56.94;101851.19;5037751;28;45414;-66
2022/06/11 06:05:06;;;;;;;;;9.00;7.67;;;;;22.26;56.80;101862.28;5037809;28;45574;-68
2022/06/11 06:07:31;;;;;;;;;9.00;8.00;;;;;22.33;56.63;101869.19;5020277;28;45568;-65
2022/06/11 06:09:57;;;;;;;;;7.00;7.00;;;;;22.37;56.72;101860.19;5038090;28;45392;-65
2022/06/11 06:12:23;;;;;;;;;8.00;7.00;;;;;22.43;56.16;101868.03;5043017;28;46033;-66
2022/06/11 06:15:13;;;;;;;;;7.00;6.00;;;;;22.40;56.08;101850.31;5037760;28;45333;-67
2022/06/11 06:17:39;;;;;;;;;7.67;7.00;;;;;22.48;56.00;101844.72;5036022;28;45345;-66
2022/06/11 06:20:07;;;;;;;;;8.00;7.67;;;;;22.52;56.03;101864.19;5047153;28;45537;-66
2022/06/11 06:22:33;;;;;;;;;7.67;7.67;;;;;22.46;56.27;101867.06;5057402;28;45426;-66
2022/06/11 06:24:59;;;;;;;;;8.33;7.00;;;;;22.50;56.34;101876.72;5057736;28;45473;-65
2022/06/11 06:27:25;;;;;;;;;7.33;7.33;;;;;22.51;56.18;101873.13;5057905;28;45430;-68
2022/06/11 06:29:51;;;;;;;;;7.67;7.67;;;;;22.53;56.31;101865.94;5040252;28;45572;-66
2022/06/11 06:32:17;;;;;;;;;8.67;8.67;;;;;22.61;56.19;101875.50;5057558;28;45240;-66
2022/06/11 06:34:42;;;;;;;;;11.33;11.00;;;;;22.55;56.03;101870.31;5039423;28;45484;-67
2022/06/11 06:37:09;;;;;;;;;9.00;9.00;;;;;22.54;56.22;101873.94;5057909;28;45433;-66
2022/06/11 06:39:35;;;;;;;;;11.00;8.00;;;;;22.38;55.87;101830.78;5057583;28;45934;-66
2022/06/11 06:42:00;;;;;;;;;7.00;7.00;;;;;22.69;55.80;101867.25;5057322;28;45523;-67
2022/06/11 06:44:27;;;;;;;;;7.00;7.00;;;;;22.65;55.98;101863.78;5057484;28;45319;-65
2022/06/11 06:46:52;;;;;;;;;10.33;9.33;;;;;22.69;56.10;101867.25;5057965;28;45537;-68
2022/06/11 06:49:18;;;;;;;;;10.33;10.33;;;;;22.62;56.07;101871.88;5057510;28;45314;-68
2022/06/11 06:51:43;;;;;;;;;9.67;9.00;;;;;22.66;56.00;101870.00;5056807;28;46502;-69
2022/06/11 06:54:09;;;;;;;;;10.00;7.33;;;;;22.72;55.80;101875.16;5057435;28;45474;-67
2022/06/11 06:56:35;;;;;;;;;9.00;7.00;;;;;22.76;55.49;101863.47;5057221;28;45371;-65
2022/06/11 06:59:01;;;;;;;;;10.00;8.67;;;;;22.92;55.10;101868.31;5039164;28;45338;-66
2022/06/11 07:01:28;;;;;;;;;9.00;7.00;;;;;22.91;55.13;101869.25;5057128;28;45419;-66
2022/06/11 07:03:55;;;;;;;;;7.00;6.67;;;;;22.82;55.01;101855.22;5057367;28;45568;-67
2022/06/11 07:06:22;;;;;;;;;7.67;6.00;;;;;22.87;54.69;101865.78;5057348;28;45540;-66
2022/06/11 07:08:52;;;;;;;;;7.67;7.00;;;;;23.02;54.44;101865.34;5057253;28;45492;-65
2022/06/11 07:11:19;;;;;;;;;7.33;5.67;;;;;23.17;54.17;101877.31;5038931;28;45420;-67
2022/06/11 07:13:44;;;;;;;;;7.67;7.33;;;;;23.15;53.78;101871.16;5055453;28;45464;-66
2022/06/11 07:16:13;;;;;;;;;7.00;6.00;;;;;23.24;53.80;101870.84;5042784;28;45375;-66
2022/06/11 07:18:48;;;;;;;;;7.00;7.00;;;;;23.27;53.76;101877.88;5057115;28;45390;-66
2022/06/11 07:21:20;;;;;;;;;5.67;5.67;;;;;23.32;53.50;101875.06;5056393;28;46343;-66
2022/06/11 07:24:26;;;;;;;;;6.00;5.00;;;;;23.29;53.35;101860.00;5056581;28;45477;-69
2022/06/11 07:26:57;;;;;;;;;5.67;5.00;;;;;23.37;53.24;101855.28;5017300;28;45623;-68
2022/06/11 07:29:34;;;;;;;;;4.67;4.67;;;;;23.53;52.91;101882.38;5057215;28;45355;-66
2022/06/11 07:32:04;;;;;;;;;5.00;5.00;;;;;23.57;52.49;101877.81;5056344;28;46141;-67
2022/06/11 07:34:31;;;;;;;;;6.33;6.00;;;;;23.66;52.66;101878.34;5049258;28;45642;-63
2022/06/11 07:36:57;;;;;;;;;7.67;6.00;;;;;23.76;52.54;101873.59;5048344;28;45497;-66
2022/06/11 07:39:23;;;;;;;;;5.00;5.00;;;;;23.91;51.51;101878.38;5048936;28;45523;-65
2022/06/11 07:41:48;;;;;;;;;5.33;5.33;;;;;23.97;51.33;101877.31;5037104;28;45969;-67
2022/06/11 07:44:36;;;;;;;;;5.33;5.33;;;;;23.96;51.50;101870.19;5048852;28;45444;-67
2022/06/11 07:47:03;;;;;;;;;6.00;5.67;;;;;24.07;51.15;101854.63;5034390;28;46235;-66
2022/06/11 07:49:29;;;;;;;;;7.33;5.00;;;;;24.25;50.73;101866.47;5050824;28;45446;-66
2022/06/11 07:51:55;;;;;;;;;10.67;7.00;;;;;24.20;50.56;101863.06;5049596;28;46211;-66
2022/06/11 07:54:20;;;;;;;;;6.00;6.00;;;;;24.32;51.03;101870.66;5051227;28;45713;-68
2022/06/11 07:56:46;;;;;;;;;6.00;5.33;;;;;24.39;50.57;101881.13;5047290;28;45481;-67
2022/06/11 07:59:12;;;;;;;;;6.00;6.00;;;;;24.50;50.46;101873.59;5052666;28;45385;-64
2022/06/11 08:01:38;;;;;;;;;7.33;6.00;;;;;24.59;49.94;101877.72;5037288;28;47265;-68
2022/06/11 08:04:04;;;;;;;;;8.00;7.00;;;;;24.58;49.79;101878.66;5035468;28;45655;-68
2022/06/11 08:06:31;;;;;;;;;7.00;7.00;;;;;24.60;49.60;101884.81;5036579;28;45428;-69
2022/06/11 08:08:57;;;;;;;;;6.00;4.33;;;;;24.62;49.89;101880.28;5037070;28;45280;-67
2022/06/11 08:11:23;;;;;;;;;6.00;5.00;;;;;24.66;49.48;101881.91;5035753;28;46343;-65
2022/06/11 08:13:49;;;;;;;;;6.00;6.00;;;;;24.73;49.36;101867.34;5035052;28;45447;-65
2022/06/11 08:16:16;;;;;;;;;7.00;7.00;;;;;24.93;48.71;101871.91;5041606;28;45437;-65
2022/06/11 08:18:42;;;;;;;;;8.00;6.00;;;;;25.05;48.53;101874.09;5056435;28;45466;-67
2022/06/11 08:21:08;;;;;;;;;6.67;6.33;;;;;24.99;48.28;101874.34;5055824;28;45529;-65
2022/06/11 08:23:42;;;;;;;;;7.00;7.00;;;;;24.95;48.42;101875.41;5055882;28;45558;-67
2022/06/11 08:26:08;;;;;;;;;6.67;6.00;;;;;24.95;48.36;101883.44;5037533;28;45414;-66
2022/06/11 08:28:34;;;;;;;;;6.00;6.00;;;;;24.94;48.24;101877.22;5055953;28;45404;-67
2022/06/11 08:31:04;;;;;;;;;6.00;6.00;;;;;24.99;48.47;101882.38;5055633;28;46088;-67
2022/06/11 08:33:31;;;;;;;;;4.67;4.67;;;;;24.95;48.41;101876.25;5055947;28;45309;-67
2022/06/11 08:35:56;;;;;;;;;4.67;4.67;;;;;24.97;48.34;101878.91;5038081;28;45433;-66
2022/06/11 08:38:22;;;;;;;;;8.00;7.00;;;;;25.02;47.49;101878.72;5041972;28;45413;-66
2022/06/11 08:40:55;;;;;;;;;8.00;8.00;;;;;25.03;48.10;101872.41;5059093;28;45513;-67
2022/06/11 08:43:30;;;;;;;;;7.00;5.00;;;;;25.07;48.34;101879.41;5058968;28;45334;-66
2022/06/11 08:46:22;;;;;;;;;6.00;6.00;;;;;25.18;48.17;101877.19;5059607;28;45727;-66
2022/06/11 08:49:00;;;;;;;;;4.00;4.00;;;;;25.21;47.40;101878.88;5059314;28;45741;-66
2022/06/11 08:51:35;;;;;;;;;5.00;5.00;;;;;25.24;47.66;101873.38;5059065;28;45397;-67
2022/06/11 08:54:25;;;;;;;;;5.67;4.00;;;;;25.20;47.76;101871.75;5058778;28;45429;-66
2022/06/11 08:57:00;;;;;;;;;6.33;6.33;;;;;25.07;47.69;101855.28;5058863;28;45520;-66
2022/06/11 08:59:50;;;;;;;;;5.00;5.00;;;;;25.13;47.63;101873.78;5059317;28;45524;-66
2022/06/11 09:02:58;;;;;;;;;7.50;5.75;;;;;25.12;47.52;101872.91;5058837;28;46529;-66
2022/06/11 09:05:57;;;;;;;;;6.00;6.00;;;;;25.20;47.39;101867.28;4996293;28;45601;-67
2022/06/11 09:08:38;;;;;;;;;5.00;5.00;;;;;25.21;47.58;101857.41;5035812;28;45567;-66
2022/06/11 09:11:16;;;;;;;;;7.00;5.00;;;;;25.24;47.80;101852.78;5059033;28;45302;-67
2022/06/11 09:13:47;;;;;;;;;8.33;7.00;;;;;25.25;47.23;101848.28;5058117;28;45467;-67
2022/06/11 09:16:31;;;;;;;;;7.00;5.00;;;;;25.24;47.38;101849.25;5040345;28;45536;-66
2022/06/11 09:19:16;;;;;;;;;8.00;6.33;;;;;25.29;47.25;101861.50;5058575;28;45466;-67
2022/06/11 09:22:15;;;;;;;;;7.00;6.00;;;;;25.35;47.41;101844.31;5059036;28;45450;-66
2022/06/11 09:24:41;;;;;;;;;5.67;5.67;;;;;25.37;46.84;101848.66;5058175;28;45518;-66
2022/06/11 09:27:18;;;;;;;;;7.00;7.00;;;;;25.41;46.69;101860.13;5058554;28;45457;-67
2022/06/11 09:30:02;;;;;;;;;7.00;5.00;;;;;25.43;46.83;101854.69;5058711;28;45477;-66
2022/06/11 09:32:47;;;;;;;;;7.67;6.00;;;;;25.42;46.28;101851.16;5058657;28;45470;-67
2022/06/11 09:35:22;;;;;;;;;7.00;5.75;;;;;25.36;46.53;101844.22;5058487;28;45446;-66
2022/06/11 09:37:54;;;;;;;;;7.00;7.00;;;;;25.47;46.53;101849.13;5058408;28;45478;-66
2022/06/11 09:40:40;;;;;;;;;6.00;6.00;;;;;25.49;46.50;101854.44;5058913;28;45429;-68
2022/06/11 09:43:41;;;;;;;;;5.00;5.00;;;;;25.55;46.22;101848.81;5058739;28;45468;-66
2022/06/11 09:46:25;;;;;;;;;9.67;9.67;;;;;25.57;46.13;101842.44;5058502;28;46250;-66
2022/06/11 09:49:01;;;;;;;;;8.33;7.67;;;;;25.74;45.77;101849.72;5041269;28;45268;-66
2022/06/11 09:51:51;;;;;;;;;5.00;5.00;;;;;25.79;46.85;101855.78;5058636;28;45302;-65
2022/06/11 09:54:51;;;;;;;;;6.00;6.00;;;;;25.79;46.95;101847.75;5059202;28;45299;-67
2022/06/11 09:57:34;;;;;;;;;8.50;7.75;;;;;25.80;45.36;101848.63;5058237;28;46343;-67
2022/06/11 10:00:34;;;;;;;;;6.50;6.50;;;;;25.74;45.58;101848.88;5058441;28;45632;-67
2022/06/11 10:06:17;;;;;;;;;4.50;4.50;;;;;25.69;44.96;101851.75;5058285;28;45757;-66
2022/06/11 10:08:49;;;;;;;;;5.33;5.00;;;;;25.63;45.15;101861.88;5021551;28;45596;-67
2022/06/11 10:11:39;;;;;;;;;4.00;4.00;;;;;25.67;45.44;101856.31;5057916;28;46076;-67
2022/06/11 10:14:30;;;;;;;;;3.50;3.50;;;;;25.68;45.32;101851.84;5003513;28;45478;-67
2022/06/11 10:17:36;;;;;;;;;6.00;5.25;;;;;25.50;45.23;101851.69;5049304;28;45307;-66
2022/06/11 10:20:28;;;;;;;;;8.67;7.67;;;;;25.30;45.47;101847.19;5057900;28;45608;-66
2022/06/11 10:23:31;;;;;;;;;10.00;9.00;;;;;25.15;45.28;101847.78;5039456;28;45366;-66
2022/06/11 10:26:09;;;;;;;;;8.67;7.00;;;;;25.15;45.28;101843.31;5039226;28;45546;-66
2022/06/11 10:28:54;;;;;;;;;5.00;5.00;;;;;25.23;45.38;101839.47;5043836;28;45502;-65
2022/06/11 10:31:30;;;;;;;;;7.00;7.00;;;;;25.23;44.78;101851.06;5057227;28;45512;-66
2022/06/11 10:34:02;;;;;;;;;5.67;5.67;;;;;25.31;44.52;101848.91;5057221;28;45492;-67
2022/06/11 10:36:34;;;;;;;;;7.00;6.33;;;;;25.44;44.99;101846.59;5025216;28;45465;-68
2022/06/11 10:39:11;;;;;;;;;6.00;5.33;;;;;25.57;44.65;101833.50;5043765;28;45221;-67
2022/06/11 10:41:44;;;;;;;;;6.00;6.00;;;;;25.78;44.69;101843.31;5057386;28;46195;-66
2022/06/11 10:44:38;;;;;;;;;6.00;5.00;;;;;25.89;44.73;101839.28;5044031;28;45445;-67
2022/06/11 10:47:34;;;;;;;;;5.00;5.00;;;;;25.89;44.41;101844.66;5057679;28;45294;-68
2022/06/11 10:50:15;;;;;;;;;7.25;5.50;;;;;25.75;44.41;101827.34;5050298;28;45249;-68
2022/06/11 10:53:07;;;;;;;;;6.25;5.75;;;;;25.78;43.99;101848.66;5056817;28;46235;-68
2022/06/11 10:55:46;;;;;;;;;5.25;3.25;;;;;25.83;43.42;101836.88;5003430;28;45511;-67
2022/06/11 10:58:26;;;;;;;;;4.00;4.00;;;;;25.84;43.15;101839.50;5057287;28;45377;-69
2022/06/11 11:01:07;;;;;;;;;4.75;4.00;;;;;25.91;43.52;101837.41;5057408;28;45256;-69
2022/06/11 11:03:39;;;;;;;;;5.75;5.00;;;;;26.08;43.87;101833.97;5038313;28;45509;-68
2022/06/11 11:06:10;;;;;;;;;4.00;4.00;;;;;26.21;42.45;101830.66;5056939;28;45457;-67
2022/06/11 11:08:49;;;;;;;;;4.00;4.00;;;;;26.31;42.60;101827.53;5057149;28;45437;-68
2022/06/11 11:11:15;;;;;;;;;6.75;6.75;;;;;26.36;42.23;101830.88;5056880;28;45463;-66
2022/06/11 11:13:44;;;;;;;;;5.00;5.00;;;;;26.29;42.27;101819.56;5056751;28;45770;-69
2022/06/11 11:16:13;;;;;;;;;5.00;5.00;;;;;26.33;42.20;101836.41;5036145;28;45465;-66
2022/06/11 11:18:50;;;;;;;;;5.00;5.00;;;;;26.29;42.89;101834.78;5049177;28;45495;-68
2022/06/11 11:21:26;;;;;;;;;5.50;4.25;;;;;26.38;42.59;101834.38;5052012;28;45442;-69
2022/06/11 11:24:01;;;;;;;;;6.00;6.00;;;;;26.47;42.24;101825.88;5049593;28;45376;-68
2022/06/11 11:26:46;;;;;;;;;4.50;4.50;;;;;26.55;42.80;101828.22;5042460;28;45359;-66
2022/06/11 11:29:28;;;;;;;;;21.33;16.00;;;;;26.51;41.83;101802.44;5056445;28;45337;-70
2022/06/11 11:32:01;;;;;;;;;18.00;15.00;;;;;26.70;41.98;101823.94;5057148;28;45445;-70
2022/06/11 11:34:30;;;;;;;;;12.00;7.33;;;;;26.74;41.72;101806.72;5056551;28;45517;-69
2022/06/11 11:37:16;;;;;;;;;7.75;7.75;;;;;26.98;40.96;101829.72;5056728;28;45451;-73
2022/06/11 11:40:02;;;;;;;;;6.75;6.00;;;;;27.10;40.81;101824.63;5056087;28;45509;-69
2022/06/11 11:42:36;;;;;;;;;6.00;5.25;;;;;27.14;40.50;101829.78;5056836;28;45517;-67
2022/06/11 11:45:24;;;;;;;;;6.00;5.00;;;;;27.14;40.53;101826.22;5056019;28;45368;-70
2022/06/11 11:47:54;;;;;;;;;7.50;5.00;;;;;27.11;40.20;101824.56;5056245;28;45466;-67
2022/06/11 11:50:26;;;;;;;;;4.75;4.75;;;;;27.02;40.45;101825.03;5056530;28;45374;-70
2022/06/11 11:53:26;;;;;;;;;7.00;5.75;;;;;26.87;40.38;101818.59;5055013;28;45485;-66
2022/06/11 11:56:02;;;;;;;;;5.25;5.25;;;;;26.96;40.13;101814.59;5037306;28;46770;-67
2022/06/11 11:58:36;;;;;;;;;4.00;4.00;;;;;26.97;39.54;101819.88;5037895;28;45891;-70
2022/06/11 12:01:07;;;;;;;;;6.00;4.25;;;;;26.82;40.01;101810.75;5056454;28;45540;-67
2022/06/11 12:03:36;;;;;;;;;5.25;4.75;;;;;26.96;39.84;101820.84;5038336;28;45445;-65
2022/06/11 12:06:04;;;;;;;;;5.00;5.00;;;;;26.95;40.01;101816.41;5056053;28;45549;-69
2022/06/11 12:08:34;;;;;;;;;98.75;92.75;;;;;26.95;41.61;101821.78;5056095;28;45354;-65
2022/06/11 12:11:01;;;;;;;;;181.00;169.75;;;;;26.94;41.17;101814.66;5056503;28;45428;-67
2022/06/11 12:13:44;;;;;;;;;187.50;170.75;;;;;26.86;40.73;101804.31;5038150;28;45488;-68
2022/06/11 12:16:21;;;;;;;;;158.25;145.75;;;;;26.82;40.91;101817.97;5045455;28;45359;-67
2022/06/11 12:18:53;;;;;;;;;81.00;76.50;;;;;26.76;40.36;101815.56;5059662;28;45500;-68
2022/06/11 12:21:23;;;;;;;;;89.50;84.50;;;;;26.83;40.87;101811.63;5059308;28;45549;-67
2022/06/11 12:23:58;;;;;;;;;51.33;43.00;;;;;26.83;40.22;101779.38;5059608;28;45406;-68
2022/06/11 12:26:49;;;;;;;;;33.33;31.00;;;;;27.14;39.80;101804.72;5059004;28;45596;-69
2022/06/11 12:29:48;;;;;;;;;26.00;22.67;;;;;27.35;39.58;101806.34;5058970;28;45437;-68
2022/06/11 12:32:20;;;;;;;;;13.33;13.33;;;;;27.49;38.75;101802.94;5059190;28;45260;-67
2022/06/11 12:34:53;;;;;;;;;8.25;8.00;;;;;27.42;39.00;101780.00;5059314;28;45393;-66
2022/06/11 12:37:43;;;;;;;;;16.50;14.00;;;;;27.51;38.63;101800.19;5058969;28;46592;-67
2022/06/11 12:40:21;;;;;;;;;22.00;22.00;;;;;27.59;38.90;101793.41;5059373;28;45673;-65
2022/06/11 12:43:19;;;;;;;;;38.00;32.00;;;;;27.73;38.64;101790.00;5059309;28;45161;-66
2022/06/11 12:46:12;;;;;;;;;20.33;18.67;;;;;27.82;37.99;101791.34;5041656;28;46105;-68
2022/06/11 12:49:32;;;;;;;;;28.33;26.33;;;;;27.98;38.21;101796.81;5059084;28;45224;-66
2022/06/11 12:52:37;;;;;;;;;20.67;20.67;;;;;28.02;38.55;101788.44;4984248;28;45468;-68
2022/06/11 12:55:06;;;;;;;;;15.33;14.33;;;;;28.03;37.76;101781.25;5036005;28;45327;-65
2022/06/11 12:57:50;;;;;;;;;16.67;14.67;;;;;28.00;37.75;101789.50;5059668;28;45465;-66
2022/06/11 13:00:36;;;;;;;;;9.25;9.25;;;;;27.88;37.64;101783.84;5058925;28;46640;-67
2022/06/11 13:03:11;;;;;;;;;8.00;6.50;;;;;27.81;37.23;101786.88;5058988;28;45377;-68
2022/06/11 13:05:55;;;;;;;;;7.50;7.50;;;;;27.81;37.37;101768.94;5058957;28;45480;-66
2022/06/11 13:08:26;;;;;;;;;12.25;11.75;;;;;27.91;37.78;101783.66;5058740;28;45520;-67
2022/06/11 13:11:04;;;;;;;;;15.67;13.67;;;;;27.93;37.59;101783.59;5058579;28;46595;-67
2022/06/11 13:13:51;;;;;;;;;10.67;10.67;;;;;27.84;37.62;101778.72;5058404;28;45477;-66
2022/06/11 13:16:25;;;;;;;;;8.00;7.25;;;;;27.75;37.97;101777.34;5059245;28;45243;-67
2022/06/11 13:19:09;;;;;;;;;35.67;33.00;;;;;27.64;38.96;101777.03;5058907;28;45292;-66
2022/06/11 13:22:22;;;;;;;;;22.33;17.67;;;;;27.57;38.25;101786.38;5058004;28;45462;-66
2022/06/11 13:25:02;;;;;;;;;15.33;15.00;;;;;27.39;38.12;101772.97;5052256;28;45438;-66
2022/06/11 13:27:52;;;;;;;;;9.00;7.50;;;;;27.44;37.86;101776.28;5058420;28;45459;-67
2022/06/11 13:30:36;;;;;;;;;7.00;6.50;;;;;27.50;38.79;101785.84;5058678;28;45494;-67
2022/06/11 13:33:22;;;;;;;;;8.00;8.00;;;;;27.62;37.91;101771.75;5058323;28;45357;-67
2022/06/11 13:35:58;;;;;;;;;8.00;8.00;;;;;27.81;38.26;101785.09;5058336;28;45457;-67
2022/06/11 13:39:01;;;;;;;;;8.75;7.75;;;;;27.97;37.82;101768.13;5058587;28;45527;-67
2022/06/11 13:41:57;;;;;;;;;4.00;4.00;;;;;28.19;37.23;101768.69;5058759;28;45422;-69
2022/06/11 13:45:12;;;;;;;;;5.00;5.00;;;;;28.41;37.10;101765.66;5058179;28;45609;-67
2022/06/11 13:47:58;;;;;;;;;4.50;4.50;;;;;28.58;36.52;101772.78;4995739;28;45522;-68
2022/06/11 13:50:38;;;;;;;;;6.25;6.00;;;;;28.50;36.33;101732.81;5044913;28;45479;-66
2022/06/11 13:56:42;;;;;;;;;5.25;5.00;;;;;28.70;35.93;101761.31;5058133;28;45437;-67
2022/06/11 13:59:45;;;;;;;;;5.20;5.20;;;;;28.79;36.25;101767.13;5038020;28;45480;-68
2022/06/11 14:02:20;;;;;;;;;5.00;4.00;;;;;28.90;36.39;101757.44;5057835;28;45420;-68
2022/06/11 14:04:51;;;;;;;;;3.75;3.00;;;;;29.06;35.95;101764.63;5040465;28;46494;-67
2022/06/11 14:07:23;;;;;;;;;3.50;3.00;;;;;29.10;35.29;101756.28;5058304;28;45969;-66
2022/06/11 14:10:24;;;;;;;;;3.00;3.00;;;;;29.19;35.82;101757.56;5058429;28;45861;-67
2022/06/11 14:12:58;;;;;;;;;4.00;4.00;;;;;29.25;34.87;101750.91;5058205;28;45622;-68
2022/06/11 14:15:39;;;;;;;;;4.00;4.00;;;;;29.21;34.96;101749.38;5045317;28;45492;-67
2022/06/11 14:18:04;;;;;;;;;3.00;3.00;;;;;29.08;35.83;101762.72;5044517;28;46345;-67
2022/06/11 14:20:33;;;;;;;;;5.25;5.00;;;;;28.98;35.34;101750.72;5057792;28;45366;-69
2022/06/11 14:23:24;;;;;;;;;3.80;3.00;;;;;28.82;35.74;101745.38;5057685;28;45655;-69
2022/06/11 14:26:06;;;;;;;;;2.50;2.50;;;;;28.68;35.34;101743.47;5057933;28;45323;-68
2022/06/11 14:28:34;;;;;;;;;3.00;2.25;;;;;28.67;35.40;101745.31;5057265;28;46256;-67
2022/06/11 14:31:02;;;;;;;;;4.00;4.00;;;;;28.61;35.67;101747.50;5057612;28;45461;-67
2022/06/11 14:33:34;;;;;;;;;6.00;5.50;;;;;28.64;35.57;101742.81;5057550;28;45399;-68
2022/06/11 14:36:20;;;;;;;;;4.00;4.00;;;;;28.77;35.98;101748.34;5057321;28;45626;-67
2022/06/11 14:38:53;;;;;;;;;4.25;4.25;;;;;28.86;35.63;101744.25;5057228;28;45560;-68
2022/06/11 14:41:44;;;;;;;;;3.00;3.00;;;;;28.89;34.87;101739.53;5058051;28;45239;-67
2022/06/11 14:44:18;;;;;;;;;3.50;3.50;;;;;28.88;35.26;101740.50;5057527;28;45481;-68
2022/06/11 14:46:56;;;;;;;;;4.75;4.75;;;;;28.84;35.14;101736.22;5057306;28;45385;-68
2022/06/11 14:49:36;;;;;;;;;3.75;3.00;;;;;28.93;34.90;101729.44;5057044;28;46219;-68
2022/06/11 14:52:05;;;;;;;;;3.20;3.20;;;;;29.00;34.48;101736.19;5057103;28;45703;-68
2022/06/11 14:54:38;;;;;;;;;4.00;3.00;;;;;29.05;34.80;101722.44;5057021;28;45544;-68
2022/06/11 14:57:44;;;;;;;;;5.00;3.50;;;;;29.22;34.41;101729.53;5056930;28;45431;-67
2022/06/11 15:00:37;;;;;;;;;3.00;3.00;;;;;29.14;34.10;101725.47;5016907;28;46086;-67
2022/06/11 15:03:24;;;;;;;;;6.25;2.75;;;;;29.14;34.42;101728.16;5056868;28;45325;-67
2022/06/11 15:06:11;;;;;;;;;3.00;3.00;;;;;29.21;34.65;101722.38;5057224;28;45443;-66
2022/06/11 15:09:02;;;;;;;;;7.00;5.25;;;;;29.23;34.24;101729.41;5057055;28;45454;-67
2022/06/11 15:11:32;;;;;;;;;4.00;4.00;;;;;29.18;34.43;101728.84;5056759;28;45457;-67
2022/06/11 15:14:25;;;;;;;;;3.00;3.00;;;;;29.18;34.70;101720.75;5055420;28;45500;-67
2022/06/11 15:17:16;;;;;;;;;3.00;3.00;;;;;29.21;34.34;101711.59;5026664;28;45462;-67
2022/06/11 15:19:49;;;;;;;;;3.00;3.00;;;;;29.25;34.41;101722.09;5024939;28;45575;-67
2022/06/11 15:22:29;;;;;;;;;3.50;3.50;;;;;29.12;34.60;101688.78;5056745;28;45451;-68
2022/06/11 15:25:11;;;;;;;;;2.00;2.00;;;;;29.32;34.77;101717.22;5056475;28;45499;-67
2022/06/11 15:27:38;;;;;;;;;5.50;5.00;;;;;29.34;34.47;101720.69;5056750;28;45441;-66
2022/06/11 15:30:16;;;;;;;;;7.00;7.00;;;;;29.36;34.07;101724.16;5056771;28;45426;-67
2022/06/11 15:32:42;;;;;;;;;5.50;4.50;;;;;29.35;34.15;101720.59;5056298;28;45915;-67
2022/06/11 15:35:22;;;;;;;;;5.00;5.00;;;;;29.37;34.01;101717.78;5056706;28;45452;-67
2022/06/11 15:37:54;;;;;;;;;5.50;4.00;;;;;29.29;33.84;101701.22;5056455;28;45756;-66
2022/06/11 15:40:41;;;;;;;;;2.00;2.00;;;;;29.09;33.43;101700.63;5056780;28;45339;-66
2022/06/11 15:43:29;;;;;;;;;4.00;3.75;;;;;29.15;33.48;101724.50;5038071;28;47846;-67
2022/06/11 15:46:01;;;;;;;;;3.00;3.00;;;;;29.13;33.61;101712.94;5038525;28;45602;-67
2022/06/11 15:48:40;;;;;;;;;3.00;3.00;;;;;29.12;34.22;101704.97;5056032;28;45485;-67
2022/06/11 15:51:16;;;;;;;;;3.00;3.00;;;;;29.31;34.38;101726.28;5056340;28;45505;-66
2022/06/11 15:57:26;;;;;;;;;3.80;3.00;;;;;29.38;34.09;101724.94;5048057;28;45579;-66
2022/06/11 16:00:06;;;;;;;;;2.25;2.25;;;;;29.32;33.93;101709.13;5041500;28;45496;-68
2022/06/11 16:02:33;;;;;;;;;3.00;3.00;;;;;29.50;34.02;101717.91;5036217;28;45270;-67
2022/06/11 16:04:59;;;;;;;;;5.00;3.00;;;;;29.51;34.13;101717.78;5035824;28;45546;-66
2022/06/11 16:07:28;;;;;;;;;2.00;2.00;;;;;29.57;34.48;101714.72;5036003;28;45408;-66